createdAt,value
2023-03-18T00:01:30.107Z,7.80
2023-03-18T00:03:58.204Z,7.53
2023-03-18T00:06:27.208Z,8.80
2023-03-18T00:08:55.589Z,14.25
2023-03-18T00:11:25.558Z,6.35
2023-03-18T00:13:54.480Z,7.93
2023-03-18T00:16:22.746Z,6.93
2023-03-18T00:18:51.327Z,9.18
2023-03-18T00:21:19.635Z,8.57
2023-03-18T00:23:49.228Z,9.00
2023-03-18T00:26:17.535Z,12.40
2023-03-18T00:28:47.033Z,12.02
2023-03-18T00:31:15.684Z,17.67
2023-03-18T00:33:46.082Z,8.73
2023-03-18T00:36:16.563Z,8.70
2023-03-18T00:38:47.185Z,22.60
2023-03-18T00:41:15.974Z,7.35
2023-03-18T00:43:52.851Z,12.15
2023-03-18T00:46:25.787Z,10.35
2023-03-18T00:48:56.357Z,10.35
2023-03-18T00:51:28.486Z,10.73
2023-03-18T00:53:59.140Z,15.20
2023-03-18T00:56:30.954Z,14.75
2023-03-18T00:59:02.361Z,10.30
2023-03-18T01:01:32.569Z,4.95
2023-03-18T01:04:02.113Z,7.85
2023-03-18T01:06:34.080Z,8.75
2023-03-18T01:09:04.705Z,8.07
2023-03-18T01:11:33.451Z,9.52
2023-03-18T01:14:01.609Z,8.00
2023-03-18T01:16:31.470Z,10.15
2023-03-18T01:18:59.967Z,8.27
2023-03-18T01:21:29.181Z,6.07
2023-03-18T01:24:01.644Z,7.43
2023-03-18T01:26:31.652Z,11.13
2023-03-18T01:29:01.560Z,7.85
2023-03-18T01:31:34.739Z,7.25
2023-03-18T01:34:08.271Z,14.75
2023-03-18T01:36:52.554Z,12.40
2023-03-18T01:39:23.436Z,9.93
2023-03-18T01:41:52.346Z,9.23
2023-03-18T01:44:29.128Z,8.25
2023-03-18T01:46:59.478Z,10.63
2023-03-18T01:49:33.194Z,6.90
2023-03-18T01:52:07.248Z,7.93
2023-03-18T01:54:39.875Z,10.93
2023-03-18T01:57:08.671Z,11.73
2023-03-18T01:59:41.441Z,6.75
2023-03-18T02:02:14.236Z,6.72
2023-03-18T02:04:44.693Z,8.75
2023-03-18T02:07:18.814Z,8.68
2023-03-18T02:09:49.017Z,9.57
2023-03-18T02:12:23.141Z,8.48
2023-03-18T02:14:54.407Z,7.50
2023-03-18T02:17:27.213Z,7.88
2023-03-18T02:20:20.260Z,7.97
2023-03-18T02:22:52.134Z,8.80
2023-03-18T02:25:33.103Z,7.00
2023-03-18T02:28:07.836Z,8.57
2023-03-18T02:30:40.379Z,9.32
2023-03-18T02:33:12.012Z,5.60
2023-03-18T02:35:43.803Z,12.90
2023-03-18T02:38:12.312Z,9.55
2023-03-18T02:40:43.333Z,16.85
2023-03-18T02:43:22.384Z,6.75
2023-03-18T02:46:20.357Z,5.93
2023-03-18T02:48:50.953Z,10.10
2023-03-18T02:51:21.029Z,8.23
2023-03-18T02:53:50.797Z,7.78
2023-03-18T02:56:19.929Z,6.90
2023-03-18T02:58:51.708Z,9.30
2023-03-18T03:01:20.953Z,8.48
2023-03-18T03:03:50.134Z,7.60
2023-03-18T03:06:18.766Z,9.80
2023-03-18T03:08:47.720Z,7.85
2023-03-18T03:11:17.025Z,7.88
2023-03-18T03:13:46.792Z,10.32
2023-03-18T03:16:19.431Z,9.80
2023-03-18T03:18:47.808Z,6.63
2023-03-18T03:21:17.137Z,9.18
2023-03-18T03:23:46.153Z,9.80
2023-03-18T03:26:16.450Z,5.03
2023-03-18T03:28:45.363Z,6.38
2023-03-18T03:31:15.587Z,6.65
2023-03-18T03:33:46.028Z,7.75
2023-03-18T03:36:17.847Z,6.32
2023-03-18T03:38:47.122Z,6.20
2023-03-18T03:41:16.366Z,8.05
2023-03-18T03:43:45.654Z,7.10
2023-03-18T03:46:14.305Z,11.25
2023-03-18T03:48:42.719Z,10.13
2023-03-18T03:51:15.983Z,7.25
2023-03-18T03:53:46.348Z,6.75
2023-03-18T03:56:15.674Z,9.90
2023-03-18T03:58:43.874Z,5.28
2023-03-18T04:01:12.720Z,8.25
2023-03-18T04:03:41.572Z,7.30
2023-03-18T04:06:10.128Z,11.98
2023-03-18T04:08:46.330Z,14.02
2023-03-18T04:11:14.824Z,5.72
2023-03-18T04:13:44.068Z,7.20
2023-03-18T04:16:12.300Z,7.50
2023-03-18T04:18:40.432Z,9.25
2023-03-18T04:21:09.138Z,6.82
2023-03-18T04:23:42.397Z,7.05
2023-03-18T04:26:13.264Z,9.95
2023-03-18T04:28:41.911Z,7.25
2023-03-18T04:31:12.381Z,7.88
2023-03-18T04:33:40.969Z,11.05
2023-03-18T04:36:10.046Z,7.95
2023-03-18T04:38:39.455Z,7.43
2023-03-18T04:41:08.458Z,4.53
2023-03-18T04:43:38.036Z,7.25
2023-03-18T04:46:06.814Z,8.30
2023-03-18T04:48:36.312Z,10.63
2023-03-18T04:51:08.473Z,9.90
2023-03-18T04:53:37.892Z,13.25
2023-03-18T04:56:07.323Z,8.82
2023-03-18T04:58:45.829Z,6.90
2023-03-18T05:01:20.445Z,6.82
2023-03-18T05:03:50.423Z,6.68
2023-03-18T05:06:23.903Z,6.88
2023-03-18T05:08:57.241Z,8.82
2023-03-18T05:11:29.542Z,8.50
2023-03-18T05:14:02.640Z,7.20
2023-03-18T05:16:38.387Z,7.43
2023-03-18T05:19:06.703Z,6.50
2023-03-18T05:21:36.036Z,6.00
2023-03-18T05:24:04.787Z,10.25
2023-03-18T05:26:40.207Z,6.13
2023-03-18T05:29:11.078Z,8.70
2023-03-18T05:31:45.729Z,8.23
2023-03-18T05:34:14.217Z,7.22
2023-03-18T05:36:45.342Z,6.55
2023-03-18T05:39:13.935Z,6.80
2023-03-18T05:41:42.418Z,6.75
2023-03-18T05:44:15.926Z,8.50
2023-03-18T05:46:44.505Z,7.80
2023-03-18T05:49:20.115Z,13.25
2023-03-18T05:52:27.060Z,6.65
2023-03-18T05:54:58.229Z,8.15
2023-03-18T05:57:31.715Z,10.48
2023-03-18T06:00:10.244Z,9.65
2023-03-18T06:02:46.433Z,7.45
2023-03-18T06:05:16.196Z,8.52
2023-03-18T06:07:47.032Z,8.15
2023-03-18T06:10:15.868Z,10.35
2023-03-18T06:12:46.347Z,9.02
2023-03-18T06:15:16.036Z,12.82
2023-03-18T06:17:44.473Z,12.63
2023-03-18T06:20:15.891Z,13.85
2023-03-18T06:22:49.045Z,8.57
2023-03-18T06:25:19.852Z,12.57
2023-03-18T06:27:49.173Z,12.85
2023-03-18T06:30:21.631Z,9.10
2023-03-18T06:32:50.902Z,6.60
2023-03-18T06:35:19.385Z,7.50
2023-03-18T06:37:47.548Z,6.97
2023-03-18T06:40:16.042Z,8.15
2023-03-18T06:42:45.515Z,12.82
2023-03-18T06:45:22.514Z,6.50
2023-03-18T06:47:56.661Z,8.77
2023-03-18T06:50:26.167Z,12.35
2023-03-18T06:52:54.532Z,6.88
2023-03-18T06:55:29.455Z,7.60
2023-03-18T06:57:59.175Z,6.90
2023-03-18T07:00:36.385Z,9.55
2023-03-18T07:03:06.740Z,9.90
2023-03-18T07:05:35.760Z,10.90
2023-03-18T07:08:04.505Z,11.20
2023-03-18T07:10:32.965Z,9.20
2023-03-18T07:13:10.964Z,10.30
2023-03-18T07:15:43.743Z,9.82
2023-03-18T07:18:12.685Z,7.25
2023-03-18T07:20:41.954Z,8.30
2023-03-18T07:23:11.168Z,7.90
2023-03-18T07:25:39.828Z,10.65
2023-03-18T07:28:08.296Z,11.95
2023-03-18T07:30:36.633Z,7.65
2023-03-18T07:33:06.736Z,9.15
2023-03-18T07:35:35.776Z,9.60
2023-03-18T07:38:04.333Z,8.43
2023-03-18T07:40:32.547Z,8.90
2023-03-18T07:43:01.110Z,9.70
2023-03-18T07:45:30.275Z,10.85
2023-03-18T07:47:59.021Z,6.93
2023-03-18T07:50:28.774Z,8.57
2023-03-18T07:52:57.179Z,8.98
2023-03-18T07:55:25.597Z,8.10
2023-03-18T07:57:54.226Z,10.48
2023-03-18T08:00:23.420Z,7.20
2023-03-18T08:02:51.482Z,8.90
2023-03-18T08:06:10.328Z,7.53
2023-03-18T08:08:40.599Z,11.25
2023-03-18T08:11:11.359Z,8.32
2023-03-18T08:13:41.466Z,10.73
2023-03-18T08:16:10.202Z,8.70
2023-03-18T08:18:38.452Z,8.60
2023-03-18T08:21:07.910Z,8.10
2023-03-18T08:23:36.460Z,10.15
2023-03-18T08:26:06.383Z,8.27
2023-03-18T08:28:34.869Z,8.63
2023-03-18T08:31:03.569Z,7.97
2023-03-18T08:33:31.731Z,7.97
2023-03-18T08:36:00.498Z,14.55
2023-03-18T08:38:29.671Z,8.82
2023-03-18T08:40:58.394Z,11.75
2023-03-18T08:43:28.548Z,11.63
2023-03-18T08:45:57.779Z,7.15
2023-03-18T08:48:26.769Z,9.40
2023-03-18T08:50:55.373Z,6.97
2023-03-18T08:53:23.474Z,12.13
2023-03-18T08:55:51.968Z,10.55
2023-03-18T08:58:20.374Z,9.18
2023-03-18T09:00:50.613Z,9.15
2023-03-18T09:03:19.384Z,8.73
2023-03-18T09:05:49.275Z,8.00
2023-03-18T09:08:17.665Z,9.00
2023-03-18T09:10:46.472Z,9.50
2023-03-18T09:13:14.767Z,10.88
2023-03-18T09:15:43.428Z,13.70
2023-03-18T09:18:13.548Z,12.55
2023-03-18T09:20:42.422Z,8.32
2023-03-18T09:23:12.764Z,7.68
2023-03-18T09:25:42.847Z,11.73
2023-03-18T09:28:11.308Z,12.45
2023-03-18T09:30:39.945Z,8.75
2023-03-18T09:33:09.379Z,9.43
2023-03-18T09:35:39.913Z,8.07
2023-03-18T09:38:08.499Z,9.93
2023-03-18T09:40:39.089Z,10.85
2023-03-18T09:43:18.820Z,10.90
2023-03-18T09:46:00.077Z,11.63
2023-03-18T09:48:48.591Z,7.80
2023-03-18T09:51:34.992Z,10.93
2023-03-18T09:54:08.267Z,9.90
2023-03-18T09:56:39.456Z,9.82
2023-03-18T09:59:17.762Z,10.77
2023-03-18T10:01:48.611Z,8.75
2023-03-18T10:04:23.726Z,8.52
2023-03-18T10:06:58.762Z,10.70
2023-03-18T10:09:31.134Z,9.90
2023-03-18T10:12:05.986Z,12.65
2023-03-18T10:14:38.926Z,12.07
2023-03-18T10:17:17.958Z,8.98
2023-03-18T10:19:50.170Z,9.02
2023-03-18T10:22:35.795Z,9.32
2023-03-18T10:25:15.854Z,10.07
2023-03-18T10:27:54.934Z,18.45
2023-03-18T10:30:36.009Z,10.88
2023-03-18T10:33:14.461Z,8.20
2023-03-18T10:35:49.527Z,10.02
2023-03-18T10:38:25.553Z,9.18
2023-03-18T10:40:54.721Z,11.45
2023-03-18T10:43:26.551Z,12.13
2023-03-18T10:46:02.363Z,10.50
2023-03-18T10:48:34.790Z,11.98
2023-03-18T10:51:13.846Z,10.70
2023-03-18T10:53:48.069Z,10.88
2023-03-18T10:56:17.029Z,13.10
2023-03-18T10:58:46.292Z,11.85
2023-03-18T11:01:21.196Z,11.18
2023-03-18T11:03:54.701Z,9.85
2023-03-18T11:06:26.491Z,9.82
2023-03-18T11:09:07.003Z,12.43
2023-03-18T11:11:37.194Z,7.70
2023-03-18T11:14:06.945Z,9.50
2023-03-18T11:16:39.995Z,11.20
2023-03-18T11:19:22.800Z,12.07
2023-03-18T11:22:01.476Z,13.15
2023-03-18T11:24:39.728Z,11.50
2023-03-18T11:27:28.355Z,9.65
2023-03-18T11:29:59.996Z,8.30
2023-03-18T11:32:31.285Z,10.85
2023-03-18T11:35:01.833Z,10.50
2023-03-18T11:37:35.272Z,11.68
2023-03-18T11:40:35.948Z,12.10
2023-03-18T11:43:13.871Z,9.25
2023-03-18T11:45:47.406Z,11.02
2023-03-18T11:48:19.466Z,9.75
2023-03-18T11:51:02.348Z,10.10
2023-03-18T11:53:46.637Z,13.10
2023-03-18T11:56:25.261Z,9.55
2023-03-18T11:59:17.631Z,10.20
2023-03-18T12:01:57.897Z,14.23
2023-03-18T12:04:39.858Z,10.65
2023-03-18T12:07:30.521Z,9.38
2023-03-18T12:10:08.791Z,12.57
2023-03-18T12:12:55.996Z,9.45
2023-03-18T12:15:40.089Z,10.65
2023-03-18T12:18:18.002Z,12.23
2023-03-18T12:20:51.201Z,10.52
2023-03-18T12:23:50.275Z,9.60
2023-03-18T12:26:27.924Z,9.15
2023-03-18T12:29:18.800Z,10.57
2023-03-18T12:31:58.611Z,10.98
2023-03-18T12:34:44.717Z,8.60
2023-03-18T12:37:32.212Z,11.25
2023-03-18T12:40:15.467Z,9.80
2023-03-18T12:42:59.211Z,10.98
2023-03-18T12:45:35.539Z,9.85
2023-03-18T12:48:09.702Z,13.50
2023-03-18T12:50:41.550Z,11.63
2023-03-18T12:53:17.153Z,10.75
2023-03-18T12:55:49.469Z,10.93
2023-03-18T12:58:23.283Z,11.18
2023-03-18T13:00:58.781Z,10.93
2023-03-18T13:03:33.767Z,12.45
2023-03-18T13:06:06.199Z,11.50
2023-03-18T13:08:48.448Z,13.07
2023-03-18T13:11:38.620Z,13.68
2023-03-18T13:14:15.634Z,10.88
2023-03-18T13:16:45.260Z,14.07
2023-03-18T13:19:13.562Z,18.67
2023-03-18T13:21:45.105Z,14.52
2023-03-18T13:24:37.638Z,9.57
2023-03-18T13:27:39.309Z,17.85
2023-03-18T13:30:17.854Z,10.70
2023-03-18T13:33:21.851Z,12.48
2023-03-18T13:36:14.804Z,14.27
2023-03-18T13:39:08.480Z,13.55
2023-03-18T13:42:00.508Z,11.05
2023-03-18T13:44:41.201Z,12.45
2023-03-18T13:47:16.087Z,12.25
2023-03-18T13:49:45.830Z,14.27
2023-03-18T13:52:30.460Z,13.88
2023-03-18T13:55:03.770Z,11.75
2023-03-18T13:57:38.036Z,12.57
2023-03-18T14:00:23.724Z,11.18
2023-03-18T14:03:06.521Z,9.90
2023-03-18T14:05:41.765Z,10.93
2023-03-18T14:08:53.211Z,11.20
2023-03-18T14:11:50.479Z,15.98
2023-03-18T14:14:41.049Z,13.35
2023-03-18T14:17:25.210Z,11.25
2023-03-18T14:19:55.905Z,10.55
2023-03-18T14:22:30.570Z,9.75
2023-03-18T14:25:22.050Z,18.52
2023-03-18T14:27:54.965Z,12.88
2023-03-18T14:30:50.345Z,13.23
2023-03-18T14:33:36.388Z,18.92
2023-03-18T14:36:11.498Z,10.68
2023-03-18T14:38:47.422Z,10.90
2023-03-18T14:41:23.858Z,11.95
2023-03-18T14:44:21.520Z,12.55
2023-03-18T14:46:54.043Z,20.23
2023-03-18T14:49:36.462Z,15.90
2023-03-18T14:52:17.256Z,18.52
2023-03-18T14:54:46.439Z,10.85
2023-03-18T14:57:14.666Z,16.20
2023-03-18T14:59:44.630Z,12.07
2023-03-18T15:02:24.109Z,10.80
2023-03-18T15:04:55.465Z,16.95
2023-03-18T15:07:33.987Z,10.73
2023-03-18T15:10:06.117Z,14.23
2023-03-18T15:12:34.644Z,12.52
2023-03-18T15:15:05.134Z,14.07
2023-03-18T15:17:33.535Z,14.23
2023-03-18T15:20:02.015Z,18.67
2023-03-18T15:22:33.200Z,12.90
2023-03-18T15:25:04.611Z,11.68
2023-03-18T15:27:34.540Z,16.42
2023-03-18T15:30:07.965Z,12.48
2023-03-18T15:32:46.139Z,14.40
2023-03-18T15:35:18.838Z,17.10
2023-03-18T15:37:48.406Z,12.93
2023-03-18T15:40:36.398Z,11.80
2023-03-18T15:43:17.310Z,12.35
2023-03-18T15:45:53.640Z,14.77
2023-03-18T15:48:27.636Z,12.00
2023-03-18T15:50:58.324Z,12.88
2023-03-18T15:53:28.035Z,17.45
2023-03-18T15:55:58.012Z,18.90
2023-03-18T15:58:28.320Z,15.18
2023-03-18T16:00:58.642Z,16.85
2023-03-18T16:03:31.306Z,16.98
2023-03-18T16:06:00.400Z,14.73
2023-03-18T16:08:28.882Z,14.27
2023-03-18T16:10:59.583Z,17.90
2023-03-18T16:13:30.466Z,18.15
2023-03-18T16:16:01.407Z,17.90
2023-03-18T16:18:29.882Z,10.50
2023-03-18T16:20:57.908Z,12.95
2023-03-18T16:23:26.645Z,16.20
2023-03-18T16:25:56.745Z,13.95
2023-03-18T16:28:28.247Z,13.35
2023-03-18T16:30:57.777Z,16.35
2023-03-18T16:33:28.048Z,17.13
2023-03-18T16:35:59.451Z,15.27
2023-03-18T16:38:28.576Z,14.95
2023-03-18T16:40:57.597Z,13.23
2023-03-18T16:43:28.335Z,16.30
2023-03-18T16:46:01.088Z,15.70
2023-03-18T16:48:31.360Z,15.65
2023-03-18T16:51:02.580Z,19.65
2023-03-18T16:53:33.331Z,20.33
2023-03-18T16:56:04.550Z,14.90
2023-03-18T16:58:35.644Z,15.73
2023-03-18T17:01:06.261Z,16.33
2023-03-18T17:03:37.381Z,15.52
2023-03-18T17:06:07.072Z,17.88
2023-03-18T17:08:36.699Z,16.42
2023-03-18T17:11:05.692Z,18.30
2023-03-18T17:13:38.041Z,18.05
2023-03-18T17:16:07.446Z,16.30
2023-03-18T17:18:37.596Z,16.38
2023-03-18T17:21:07.111Z,17.55
2023-03-18T17:23:35.796Z,17.67
2023-03-18T17:26:04.846Z,17.20
2023-03-18T17:28:37.263Z,16.23
2023-03-18T17:31:07.633Z,17.13
2023-03-18T17:33:38.478Z,13.57
2023-03-18T17:36:08.649Z,17.48
2023-03-18T17:38:37.582Z,17.88
2023-03-18T17:41:14.039Z,16.25
2023-03-18T17:43:42.315Z,20.95
2023-03-18T17:46:10.775Z,27.52
2023-03-18T17:48:41.138Z,23.00
2023-03-18T17:51:16.813Z,19.17
2023-03-18T17:53:48.073Z,15.50
2023-03-18T17:56:18.593Z,20.58
2023-03-18T17:58:48.970Z,18.30
2023-03-18T18:01:19.613Z,18.20
2023-03-18T18:03:49.843Z,31.90
2023-03-18T18:06:23.317Z,29.90
2023-03-18T18:08:52.163Z,28.00
2023-03-18T18:11:22.507Z,26.13
2023-03-18T18:13:52.242Z,30.63
2023-03-18T18:16:21.655Z,27.83
2023-03-18T18:18:51.843Z,29.15
2023-03-18T18:21:24.732Z,25.77
2023-03-18T18:23:53.441Z,26.33
2023-03-18T18:26:22.887Z,28.02
2023-03-18T18:28:52.894Z,22.83
2023-03-18T18:31:22.824Z,26.60
2023-03-18T18:33:55.887Z,28.02
2023-03-18T18:36:28.152Z,26.23
2023-03-18T18:38:57.008Z,30.08
2023-03-18T18:41:26.003Z,29.25
2023-03-18T18:43:55.657Z,24.80
2023-03-18T18:46:26.564Z,19.73
2023-03-18T18:48:56.694Z,19.25
2023-03-18T18:51:26.588Z,22.23
2023-03-18T18:53:56.340Z,23.20
2023-03-18T18:56:34.285Z,22.45
2023-03-18T18:59:05.322Z,19.65
2023-03-18T19:01:33.594Z,20.58
2023-03-18T19:04:04.028Z,20.52
2023-03-18T19:06:33.608Z,16.85
2023-03-18T19:09:05.163Z,20.38
2023-03-18T19:11:34.778Z,18.42
2023-03-18T19:14:18.858Z,21.73
2023-03-18T19:16:48.309Z,22.27
2023-03-18T19:19:20.560Z,20.83
2023-03-18T19:21:49.740Z,18.58
2023-03-18T19:24:26.809Z,21.48
2023-03-18T19:26:56.843Z,26.42
2023-03-18T19:29:26.698Z,21.20
2023-03-18T19:31:55.428Z,21.33
2023-03-18T19:34:26.968Z,22.80
2023-03-18T19:36:57.117Z,20.95
2023-03-18T19:39:27.894Z,26.20
2023-03-18T19:41:56.761Z,21.55
2023-03-18T19:44:26.738Z,22.80
2023-03-18T19:46:56.483Z,18.67
2023-03-18T19:49:29.949Z,20.05
2023-03-18T19:51:58.930Z,23.77
2023-03-18T19:54:31.579Z,24.30
2023-03-18T19:57:03.752Z,24.92
2023-03-18T19:59:38.617Z,22.27
2023-03-18T20:02:19.556Z,22.45
2023-03-18T20:04:50.344Z,21.52
2023-03-18T20:07:20.762Z,22.98
2023-03-18T20:09:50.296Z,21.58
2023-03-18T20:12:25.815Z,21.38
2023-03-18T20:14:54.681Z,25.88
2023-03-18T20:17:34.416Z,21.25
2023-03-18T20:20:05.678Z,22.27
2023-03-18T20:22:37.657Z,33.60
2023-03-18T20:25:08.425Z,28.92
2023-03-18T20:27:36.427Z,30.10
2023-03-18T20:30:22.929Z,38.92
2023-03-18T20:32:52.357Z,29.88
2023-03-18T20:35:22.249Z,23.65
2023-03-18T20:37:50.565Z,16.55
2023-03-18T20:40:22.946Z,21.63
2023-03-18T20:42:52.779Z,18.35
2023-03-18T20:45:22.254Z,17.30
2023-03-18T20:47:51.732Z,23.67
2023-03-18T20:50:25.689Z,24.48
2023-03-18T20:52:54.054Z,20.98
2023-03-18T20:55:25.565Z,23.67
2023-03-18T20:57:55.035Z,22.10
2023-03-18T21:00:26.970Z,29.30
2023-03-18T21:02:57.670Z,22.98
2023-03-18T21:05:28.411Z,21.42
2023-03-18T21:07:56.727Z,26.90
2023-03-18T21:10:27.391Z,20.65
2023-03-18T21:12:56.209Z,18.42
2023-03-18T21:15:26.166Z,16.92
2023-03-18T21:17:55.079Z,19.30
2023-03-18T21:20:28.825Z,20.85
2023-03-18T21:22:57.537Z,21.40
2023-03-18T21:25:27.977Z,18.38
2023-03-18T21:27:56.673Z,17.83
2023-03-18T21:30:24.831Z,17.77
2023-03-18T21:32:53.219Z,19.70
2023-03-18T21:35:23.433Z,25.98
2023-03-18T21:37:53.893Z,23.15
2023-03-18T21:40:24.041Z,36.55
2023-03-18T21:42:52.675Z,35.53
2023-03-18T21:45:22.945Z,26.80
2023-03-18T21:47:52.704Z,24.35
2023-03-18T21:50:24.088Z,26.88
2023-03-18T21:52:54.680Z,29.55
2023-03-18T21:55:22.813Z,29.35
2023-03-18T21:57:50.993Z,25.13
2023-03-18T22:00:21.139Z,17.02
2023-03-18T22:02:50.088Z,18.30
2023-03-18T22:05:21.066Z,21.02
2023-03-18T22:07:50.752Z,25.35
2023-03-18T22:10:23.160Z,23.63
2023-03-18T22:12:51.689Z,16.73
2023-03-18T22:15:35.720Z,19.08
2023-03-18T22:18:04.782Z,24.65
2023-03-18T22:20:34.822Z,19.98
2023-03-18T22:23:03.183Z,22.08
2023-03-18T22:25:36.560Z,19.58
2023-03-18T22:28:05.840Z,15.55
2023-03-18T22:30:35.799Z,34.13
2023-03-18T22:33:06.673Z,21.65
2023-03-18T22:35:36.138Z,23.77
2023-03-18T22:38:04.375Z,27.48
2023-03-18T22:40:34.146Z,24.92
2023-03-18T22:43:02.915Z,21.65
2023-03-18T22:45:33.296Z,19.90
2023-03-18T22:48:03.908Z,28.95
2023-03-18T22:50:34.552Z,21.90
2023-03-18T22:53:06.788Z,26.05
2023-03-18T22:55:38.785Z,28.55
2023-03-18T22:58:07.425Z,33.22
2023-03-18T23:00:38.159Z,32.28
2023-03-18T23:03:12.935Z,32.95
2023-03-18T23:05:41.183Z,17.83
2023-03-18T23:08:09.889Z,18.30
2023-03-18T23:10:39.656Z,27.00
2023-03-18T23:13:14.456Z,25.25
2023-03-18T23:15:42.805Z,30.50
2023-03-18T23:18:15.453Z,38.63
2023-03-18T23:20:44.479Z,29.27
2023-03-18T23:23:13.208Z,19.15
2023-03-18T23:25:43.861Z,21.25
2023-03-18T23:28:12.165Z,28.17
2023-03-18T23:30:43.117Z,20.27
2023-03-18T23:33:11.539Z,20.38
2023-03-18T23:35:39.925Z,18.83
2023-03-18T23:38:08.113Z,20.38
2023-03-18T23:40:36.622Z,16.80
2023-03-18T23:43:06.666Z,16.65
2023-03-18T23:45:35.299Z,17.75
2023-03-18T23:48:04.094Z,21.73
2023-03-18T23:50:32.246Z,20.95
2023-03-18T23:53:00.971Z,18.77
2023-03-18T23:55:36.412Z,17.83
2023-03-18T23:58:06.367Z,15.18
